Time;durP1;ratioP1;P1;durP2;ratioP2;P2;SDS_P1;SDS_P2;PMS_P1;PMS_P2;Temp;Humidity;BMP_temperature;BMP_pressure;BME280_temperature;BME280_humidity;BME280_pressure;Samples;Min_cycle;Max_cycle;Signal;HPM_P1;HPM_P2
2023/06/07 00:00:41;;;;;;;;;17.33;13.67;;;;;21.35;50.74;101417.03;5070817;27;67839;-57
2023/06/07 00:03:09;;;;;;;;;18.00;14.67;;;;;21.22;50.91;101420.78;5069889;27;45755;-57
2023/06/07 00:05:36;;;;;;;;;12.67;12.67;;;;;21.22;50.60;101419.94;5081096;27;45569;-58
2023/06/07 00:08:02;;;;;;;;;15.33;15.33;;;;;21.22;50.77;101423.47;5072391;28;46385;-58
2023/06/07 00:10:30;;;;;;;;;15.67;15.00;;;;;21.29;50.92;101418.44;5066824;27;46372;-57
2023/06/07 00:12:55;;;;;;;;;14.00;13.00;;;;;21.27;50.46;101417.69;5066969;28;45343;-57
2023/06/07 00:15:20;;;;;;;;;16.00;16.00;;;;;21.31;51.45;101421.84;5074014;28;45488;-57
2023/06/07 00:17:45;;;;;;;;;17.00;15.00;;;;;21.30;50.95;101420.13;5064990;27;68215;-58
2023/06/07 00:20:12;;;;;;;;;17.00;15.33;;;;;21.27;51.00;101420.38;5064477;27;45802;-57
2023/06/07 00:22:38;;;;;;;;;15.33;13.33;;;;;21.24;51.00;101421.50;5061459;28;45508;-58
2023/06/07 00:25:05;;;;;;;;;18.00;16.00;;;;;21.23;50.16;101427.91;5061401;28;45683;-57
2023/06/07 00:27:31;;;;;;;;;14.67;14.67;;;;;21.21;51.24;101419.06;5064383;28;46563;-58
2023/06/07 00:29:56;;;;;;;;;16.67;15.33;;;;;21.18;50.74;101421.19;5062709;28;45376;-57
2023/06/07 00:32:22;;;;;;;;;18.67;14.67;;;;;21.13;50.84;101411.63;5062620;27;67238;-57
2023/06/07 00:34:48;;;;;;;;;16.33;12.00;;;;;21.11;52.35;101412.75;5061810;27;45381;-57
2023/06/07 00:37:13;;;;;;;;;16.33;14.00;;;;;21.08;50.63;101413.84;5058230;27;46368;-57
2023/06/07 00:39:39;;;;;;;;;15.33;14.33;;;;;21.05;50.53;101411.41;5068258;27;56813;-57
2023/06/07 00:42:05;;;;;;;;;18.67;15.67;;;;;21.04;52.06;101414.22;5068522;27;45730;-58
2023/06/07 00:44:31;;;;;;;;;18.67;14.33;;;;;20.99;51.44;101414.66;5070531;28;45390;-57
2023/06/07 00:46:56;;;;;;;;;16.67;15.67;;;;;20.94;52.07;101415.03;5067940;27;45375;-57
2023/06/07 00:49:22;;;;;;;;;18.67;15.67;;;;;20.89;51.53;101424.50;5071748;28;45377;-57
2023/06/07 00:51:47;;;;;;;;;17.00;15.00;;;;;20.85;51.38;101421.19;5069464;27;45358;-58
2023/06/07 00:54:17;;;;;;;;;15.00;14.00;;;;;20.75;51.41;101420.25;5069563;27;45398;-57
2023/06/07 00:56:49;;;;;;;;;16.00;13.67;;;;;20.71;51.74;101421.50;5067824;28;45408;-58
2023/06/07 00:59:16;;;;;;;;;13.00;12.00;;;;;20.67;51.37;101416.31;5081910;27;45282;-57
2023/06/07 01:01:44;;;;;;;;;17.00;15.00;;;;;20.66;50.98;101419.13;5070167;28;45478;-57
2023/06/07 01:04:09;;;;;;;;;16.67;14.00;;;;;20.63;51.35;101412.16;5072677;28;45421;-58
2023/06/07 01:06:36;;;;;;;;;18.00;14.67;;;;;20.61;51.37;101410.56;5063337;27;46137;-58
2023/06/07 01:09:05;;;;;;;;;17.33;15.67;;;;;20.59;51.57;101415.25;5066295;28;45622;-57
2023/06/07 01:11:30;;;;;;;;;20.00;15.33;;;;;20.57;52.13;101407.28;5065192;27;45492;-57
2023/06/07 01:13:56;;;;;;;;;17.00;15.00;;;;;20.54;53.05;101412.91;5068910;27;59562;-57
2023/06/07 01:16:22;;;;;;;;;20.00;19.00;;;;;20.53;51.48;101407.63;5068955;28;69519;-57
2023/06/07 01:18:47;;;;;;;;;15.00;14.67;;;;;20.49;52.06;101407.03;5071862;27;59141;-57
2023/06/07 01:21:18;;;;;;;;;18.33;16.00;;;;;20.47;51.90;101403.63;5071700;27;48410;-57
2023/06/07 01:23:44;;;;;;;;;15.67;15.00;;;;;20.47;51.50;101406.31;5068520;28;45282;-57
2023/06/07 01:26:09;;;;;;;;;15.00;13.33;;;;;20.45;51.98;101405.56;5063402;28;46144;-57
2023/06/07 01:28:37;;;;;;;;;16.33;16.00;;;;;20.39;51.82;101412.34;5070170;27;66593;-57
2023/06/07 01:31:03;;;;;;;;;16.67;15.67;;;;;20.34;52.02;101403.75;5073465;27;45374;-57
2023/06/07 01:33:30;;;;;;;;;17.00;15.00;;;;;20.28;52.30;101399.69;5072143;28;45671;-57
2023/06/07 01:35:57;;;;;;;;;24.00;18.00;;;;;20.26;52.83;101398.09;5067102;28;46820;-57
2023/06/07 01:38:22;;;;;;;;;16.00;14.00;;;;;20.18;52.74;101393.38;5071999;28;45328;-57
2023/06/07 01:40:48;;;;;;;;;14.00;12.33;;;;;20.15;52.84;101399.00;5094270;27;45344;-57
2023/06/07 01:43:14;;;;;;;;;17.33;15.67;;;;;20.10;52.96;101404.78;5076223;27;66802;-58
2023/06/07 01:45:40;;;;;;;;;16.67;15.00;;;;;20.06;52.69;101408.69;5063968;28;72958;-58
2023/06/07 01:48:06;;;;;;;;;14.00;13.33;;;;;20.03;53.17;101411.66;5091119;27;45535;-57
2023/06/07 01:50:31;;;;;;;;;18.33;17.00;;;;;19.96;53.09;101405.88;5070351;28;63603;-57
2023/06/07 01:52:56;;;;;;;;;24.33;17.67;;;;;19.94;53.16;101410.53;5071212;27;61945;-57
2023/06/07 01:55:23;;;;;;;;;24.00;18.33;;;;;19.90;53.10;101400.13;5077117;27;62959;-57
2023/06/07 01:57:54;;;;;;;;;17.00;14.67;;;;;19.86;52.98;101395.97;5080051;28;45419;-57
2023/06/07 02:00:27;;;;;;;;;22.67;15.00;;;;;19.83;53.03;101399.75;5070747;27;45452;-57
2023/06/07 02:02:59;;;;;;;;;23.67;20.33;;;;;19.80;53.35;101394.56;5089833;27;45487;-57
2023/06/07 02:05:29;;;;;;;;;16.67;14.00;;;;;19.74;53.26;101395.91;5072029;28;46237;-57
2023/06/07 02:07:56;;;;;;;;;20.00;19.00;;;;;19.71;53.27;101388.09;5073983;28;45387;-57
2023/06/07 02:10:25;;;;;;;;;19.67;18.00;;;;;19.67;55.38;101381.19;5072634;28;65921;-57
2023/06/07 02:12:55;;;;;;;;;19.00;13.67;;;;;19.60;54.48;101386.22;5073671;28;45614;-57
2023/06/07 02:15:21;;;;;;;;;24.00;20.33;;;;;19.57;54.63;101391.88;5089663;27;45483;-57
2023/06/07 02:17:57;;;;;;;;;24.00;18.67;;;;;19.53;55.35;101392.22;5077610;27;45921;-57
2023/06/07 02:20:22;;;;;;;;;21.33;20.33;;;;;19.51;54.66;101381.53;5077045;27;45397;-57
2023/06/07 02:22:48;;;;;;;;;15.33;14.00;;;;;19.47;54.59;101386.31;5080148;27;47187;-58
2023/06/07 02:25:13;;;;;;;;;18.67;17.67;;;;;19.46;53.95;101389.16;5070710;27;46265;-57
2023/06/07 02:27:39;;;;;;;;;19.33;17.67;;;;;19.46;54.70;101387.31;5078027;28;45477;-58
2023/06/07 02:30:05;;;;;;;;;25.67;18.67;;;;;19.45;54.75;101384.72;5074577;28;45429;-57
2023/06/07 02:32:33;;;;;;;;;21.67;18.33;;;;;19.43;54.38;101384.84;5064265;27;45688;-57
2023/06/07 02:34:59;;;;;;;;;18.67;16.00;;;;;19.42;54.09;101382.28;5077665;27;45617;-57
2023/06/07 02:37:24;;;;;;;;;18.33;15.00;;;;;19.40;54.44;101374.31;5070828;27;45370;-57
2023/06/07 02:39:50;;;;;;;;;19.67;18.00;;;;;19.40;54.24;101377.00;5067685;28;45347;-57
2023/06/07 02:42:15;;;;;;;;;24.00;19.67;;;;;19.43;54.71;101376.75;5064129;27;66590;-57
2023/06/07 02:44:40;;;;;;;;;23.00;21.33;;;;;19.39;54.47;101377.97;5070670;27;70948;-57
2023/06/07 02:47:06;;;;;;;;;26.33;22.67;;;;;19.33;55.62;101375.75;5077631;27;71078;-58
2023/06/07 02:49:31;;;;;;;;;21.67;16.67;;;;;19.33;54.73;101376.63;5068204;27;52853;-58
2023/06/07 02:51:56;;;;;;;;;21.33;20.00;;;;;19.33;54.48;101381.16;5072709;27;57845;-58
2023/06/07 02:54:22;;;;;;;;;19.00;18.67;;;;;19.25;54.71;101376.34;5068471;28;68179;-58
2023/06/07 02:56:47;;;;;;;;;21.00;18.00;;;;;19.18;55.17;101377.81;5080182;27;45396;-57
2023/06/07 02:59:12;;;;;;;;;22.33;18.00;;;;;19.22;55.04;101375.75;5069686;27;45335;-57
2023/06/07 03:01:38;;;;;;;;;22.67;17.33;;;;;19.14;54.87;101379.03;5068691;27;45499;-57
2023/06/07 03:04:04;;;;;;;;;22.67;19.33;;;;;19.09;55.61;101389.31;5074857;27;45318;-57
2023/06/07 03:06:29;;;;;;;;;21.33;18.67;;;;;19.10;55.65;101375.72;5064710;27;45394;-57
2023/06/07 03:08:56;;;;;;;;;20.67;19.33;;;;;19.11;55.71;101384.66;5066626;28;45433;-59
2023/06/07 03:11:22;;;;;;;;;20.00;19.33;;;;;19.07;55.06;101378.63;5069801;28;45635;-57
2023/06/07 03:13:47;;;;;;;;;27.00;20.33;;;;;19.04;55.94;101381.56;5063671;27;45915;-57
2023/06/07 03:16:12;;;;;;;;;21.67;19.33;;;;;18.95;55.60;101376.88;5072814;27;61815;-57
2023/06/07 03:18:38;;;;;;;;;22.33;19.00;;;;;18.92;55.80;101388.75;5069267;28;64201;-57
2023/06/07 03:21:03;;;;;;;;;19.67;17.00;;;;;18.90;55.56;101384.47;5066910;28;64793;-57
2023/06/07 03:23:30;;;;;;;;;22.33;19.67;;;;;18.89;55.64;101378.22;5067610;27;45705;-57
2023/06/07 03:25:57;;;;;;;;;20.67;16.67;;;;;18.89;55.92;101378.22;5078665;27;45586;-61
2023/06/07 03:28:22;;;;;;;;;24.67;21.33;;;;;18.88;56.32;101375.59;5071761;27;45513;-57
2023/06/07 03:30:48;;;;;;;;;22.33;18.00;;;;;18.81;56.09;101373.38;5075480;28;45333;-57
2023/06/07 03:33:13;;;;;;;;;23.00;20.33;;;;;18.78;57.57;101376.28;5061979;28;47230;-57
2023/06/07 03:35:39;;;;;;;;;21.00;18.67;;;;;18.75;56.36;101375.69;5069500;28;67050;-57
2023/06/07 03:38:05;;;;;;;;;23.67;19.00;;;;;18.72;56.97;101373.22;5073081;27;47063;-57
2023/06/07 03:40:30;;;;;;;;;23.67;21.33;;;;;18.69;56.63;101371.59;5063098;28;45508;-57
2023/06/07 03:42:55;;;;;;;;;24.67;21.67;;;;;18.66;56.66;101370.00;5063742;27;72848;-57
2023/06/07 03:45:21;;;;;;;;;24.00;23.67;;;;;18.64;56.19;101369.28;5076057;28;45512;-57
2023/06/07 03:47:46;;;;;;;;;24.67;21.33;;;;;18.64;56.91;101374.66;5072871;27;63128;-58
2023/06/07 03:50:11;;;;;;;;;29.00;23.33;;;;;18.63;56.80;101370.25;5076124;28;68164;-57
2023/06/07 03:52:37;;;;;;;;;24.00;20.00;;;;;18.60;56.82;101370.47;5066419;27;46251;-58
2023/06/07 03:55:02;;;;;;;;;21.33;20.67;;;;;18.58;58.31;101372.44;5071469;28;49052;-57
2023/06/07 03:57:28;;;;;;;;;24.33;21.67;;;;;18.54;57.34;101368.25;5087605;27;45487;-57
2023/06/07 03:59:53;;;;;;;;;26.00;20.67;;;;;18.50;57.91;101372.16;5071100;28;59122;-57
2023/06/07 04:02:18;;;;;;;;;22.67;20.33;;;;;18.45;57.86;101371.63;5069938;28;73235;-57
2023/06/07 04:04:44;;;;;;;;;25.00;23.00;;;;;18.44;57.46;101375.28;5076967;27;66068;-57
2023/06/07 04:07:10;;;;;;;;;27.33;24.00;;;;;18.42;58.25;101377.22;5084731;27;45416;-57
2023/06/07 04:09:35;;;;;;;;;25.33;24.00;;;;;18.40;57.39;101380.03;5075053;27;45401;-57
2023/06/07 04:12:01;;;;;;;;;26.00;25.00;;;;;18.41;57.65;101375.50;5072422;28;46318;-57
2023/06/07 04:14:27;;;;;;;;;24.67;23.67;;;;;18.40;58.18;101387.28;5073719;28;45352;-57
2023/06/07 04:16:52;;;;;;;;;25.00;23.00;;;;;18.39;57.74;101381.00;5066217;28;45393;-57
2023/06/07 04:19:17;;;;;;;;;26.00;20.00;;;;;18.40;57.90;101388.13;5064170;28;62219;-58
2023/06/07 04:21:43;;;;;;;;;27.00;26.00;;;;;18.43;58.77;101387.88;5070343;28;45432;-57
2023/06/07 04:24:08;;;;;;;;;21.67;21.33;;;;;18.45;58.24;101390.50;5065109;28;60663;-57
2023/06/07 04:26:34;;;;;;;;;35.33;28.00;;;;;18.43;57.50;101385.19;5075998;27;45636;-57
2023/06/07 04:28:59;;;;;;;;;38.67;24.67;;;;;18.41;57.58;101384.47;5071747;28;45963;-57
2023/06/07 04:31:32;;;;;;;;;25.67;21.67;;;;;18.48;57.78;101391.09;5071281;27;45838;-57
2023/06/07 04:34:01;;;;;;;;;23.00;23.00;;;;;18.46;57.42;101390.38;5079009;27;45438;-57
2023/06/07 04:36:29;;;;;;;;;23.00;21.00;;;;;18.41;58.35;101391.66;5062407;27;45654;-57
2023/06/07 04:38:55;;;;;;;;;27.33;23.33;;;;;18.41;58.01;101394.34;5063378;28;45627;-57
2023/06/07 04:41:25;;;;;;;;;31.33;28.00;;;;;18.39;58.08;101399.84;5072195;27;47689;-57
2023/06/07 04:43:51;;;;;;;;;24.00;22.00;;;;;18.37;57.74;101400.94;5063769;27;45464;-58
2023/06/07 04:46:18;;;;;;;;;35.00;29.00;;;;;18.37;58.52;101409.91;5066840;27;45340;-58
2023/06/07 04:48:43;;;;;;;;;26.67;26.33;;;;;18.33;59.08;101403.88;5068533;28;45466;-57
2023/06/07 04:51:11;;;;;;;;;24.33;20.67;;;;;18.33;58.31;101403.03;5060020;28;45723;-57
2023/06/07 04:53:38;;;;;;;;;26.33;24.33;;;;;18.29;59.37;101404.19;5069831;28;45562;-57
2023/06/07 04:56:04;;;;;;;;;30.33;24.00;;;;;18.37;58.44;101406.31;5072574;27;45386;-57
2023/06/07 04:58:31;;;;;;;;;30.67;24.00;;;;;18.30;60.04;101406.81;5058130;28;45468;-57
2023/06/07 05:00:57;;;;;;;;;30.33;26.33;;;;;18.31;58.95;101407.66;5072975;27;48421;-57
2023/06/07 05:03:22;;;;;;;;;32.67;29.67;;;;;18.31;58.75;101399.56;5075817;28;45514;-57
2023/06/07 05:05:48;;;;;;;;;30.67;30.00;;;;;18.32;58.82;101402.16;5065813;28;45534;-57
2023/06/07 05:08:15;;;;;;;;;36.00;28.00;;;;;18.30;59.25;101406.81;5070105;27;45631;-57
2023/06/07 05:10:40;;;;;;;;;31.00;25.67;;;;;18.30;59.73;101408.63;5072554;27;46630;-57
2023/06/07 05:13:06;;;;;;;;;28.00;27.67;;;;;18.29;59.27;101405.06;5067781;27;45456;-57
2023/06/07 05:15:31;;;;;;;;;28.67;25.33;;;;;18.33;58.86;101405.72;5078337;27;45472;-57
2023/06/07 05:17:58;;;;;;;;;32.33;27.67;;;;;18.34;60.70;101415.50;5072849;28;45372;-57
2023/06/07 05:20:24;;;;;;;;;32.33;28.33;;;;;18.35;59.36;101411.84;5069874;28;45505;-57
2023/06/07 05:22:50;;;;;;;;;34.33;30.00;;;;;18.37;59.91;101403.63;5075163;28;45626;-57
2023/06/07 05:25:16;;;;;;;;;35.67;28.33;;;;;18.65;58.55;101405.16;5094829;27;45511;-57
2023/06/07 05:27:42;;;;;;;;;40.33;30.00;;;;;18.83;57.87;101408.31;5092978;27;45519;-57
2023/06/07 05:30:08;;;;;;;;;29.33;25.67;;;;;18.62;58.25;101408.94;5081299;27;46505;-57
2023/06/07 05:32:34;;;;;;;;;30.00;27.00;;;;;18.85;57.29;101406.34;5075796;27;46915;-57
2023/06/07 05:35:01;;;;;;;;;31.67;29.33;;;;;19.05;58.23;101406.72;5073733;27;45540;-57
2023/06/07 05:37:27;;;;;;;;;30.67;28.00;;;;;19.01;58.16;101404.22;5070431;27;46428;-57
2023/06/07 05:39:53;;;;;;;;;35.33;31.67;;;;;19.04;57.36;101402.28;5074943;27;45524;-57
2023/06/07 05:42:18;;;;;;;;;35.00;28.67;;;;;19.29;57.04;101401.25;5076327;28;45752;-57
2023/06/07 05:44:45;;;;;;;;;32.67;31.00;;;;;19.41;56.55;101410.22;5070807;28;45479;-57
2023/06/07 05:47:11;;;;;;;;;30.67;29.67;;;;;19.47;56.18;101410.59;5067020;28;45620;-57
2023/06/07 05:49:36;;;;;;;;;28.33;22.00;;;;;19.16;56.58;101406.72;5074836;28;46319;-57
2023/06/07 05:52:02;;;;;;;;;28.67;28.67;;;;;19.13;57.53;101404.28;5067702;27;54410;-57
2023/06/07 05:54:27;;;;;;;;;33.67;29.00;;;;;19.10;57.29;101410.75;5068021;27;48199;-57
2023/06/07 05:56:52;;;;;;;;;33.67;30.67;;;;;19.33;56.96;101409.00;5068305;27;45278;-57
2023/06/07 05:59:18;;;;;;;;;28.00;19.67;;;;;19.08;56.70;101401.94;5072035;28;53724;-57
2023/06/07 06:01:44;;;;;;;;;35.67;29.67;;;;;19.03;57.23;101405.97;5069121;27;50619;-57
2023/06/07 06:04:10;;;;;;;;;35.33;31.00;;;;;19.19;56.91;101411.91;5080781;27;45353;-57
2023/06/07 06:06:38;;;;;;;;;29.67;25.33;;;;;19.53;56.54;101411.09;5072009;28;45453;-57
2023/06/07 06:09:04;;;;;;;;;30.33;25.33;;;;;19.74;55.75;101411.28;5071355;28;47442;-57
2023/06/07 06:11:30;;;;;;;;;31.67;29.00;;;;;20.03;55.16;101400.84;5080635;27;45450;-57
2023/06/07 06:13:55;;;;;;;;;34.00;27.67;;;;;20.29;54.85;101408.69;5079905;28;45286;-57
2023/06/07 06:16:21;;;;;;;;;36.00;28.33;;;;;20.33;54.67;101416.38;5073248;28;57512;-57
2023/06/07 06:18:46;;;;;;;;;31.00;25.00;;;;;20.39;54.38;101416.88;5067783;27;67284;-57
2023/06/07 06:21:11;;;;;;;;;30.67;28.00;;;;;20.72;54.02;101413.25;5074781;28;52474;-57
2023/06/07 06:23:37;;;;;;;;;33.00;29.33;;;;;20.59;53.96;101416.09;5064322;28;45756;-58
2023/06/07 06:26:02;;;;;;;;;31.67;26.67;;;;;20.69;53.48;101418.91;5061196;28;45659;-57
2023/06/07 06:28:28;;;;;;;;;30.33;28.33;;;;;20.79;53.33;101419.00;5067467;27;46033;-57
2023/06/07 06:30:53;;;;;;;;;36.67;28.67;;;;;20.87;53.33;101427.34;5065943;28;45790;-56
2023/06/07 06:33:19;;;;;;;;;26.33;25.33;;;;;20.86;52.87;101424.75;5068705;28;46923;-57
2023/06/07 06:35:45;;;;;;;;;32.00;29.00;;;;;20.92;52.35;101425.09;5074143;28;48742;-57
2023/06/07 06:38:11;;;;;;;;;31.33;25.67;;;;;21.49;52.05;101422.94;5065778;27;45537;-56
2023/06/07 06:40:36;;;;;;;;;38.00;30.00;;;;;21.64;52.01;101430.75;5074261;28;45374;-57
2023/06/07 06:43:02;;;;;;;;;33.33;30.00;;;;;22.51;50.42;101423.13;5066513;27;64292;-56
2023/06/07 06:45:28;;;;;;;;;35.00;30.00;;;;;22.87;49.67;101426.19;5066809;27;45619;-57
2023/06/07 06:47:54;;;;;;;;;31.33;28.67;;;;;23.09;48.74;101427.75;5071164;27;46148;-57
2023/06/07 06:50:19;;;;;;;;;37.00;26.33;;;;;23.60;48.29;101423.81;5064294;27;45340;-57
2023/06/07 06:52:45;;;;;;;;;27.00;25.33;;;;;24.02;47.20;101427.13;5071531;27;45546;-57
2023/06/07 06:55:10;;;;;;;;;31.33;26.67;;;;;24.26;46.58;101424.72;5076244;27;60929;-58
2023/06/07 06:57:35;;;;;;;;;32.00;29.33;;;;;25.52;46.79;101423.88;5077817;28;60526;-57
2023/06/07 07:00:10;;;;;;;;;32.00;29.67;;;;;27.29;43.73;101416.78;5080180;27;59095;-57
2023/06/07 07:02:36;;;;;;;;;29.33;24.33;;;;;28.13;38.82;101419.16;5073136;28;45378;-58
2023/06/07 07:05:03;;;;;;;;;36.00;30.67;;;;;28.06;39.64;101420.91;5061655;28;45295;-57
2023/06/07 07:07:29;;;;;;;;;32.33;26.33;;;;;28.55;38.42;101411.56;5062955;27;45788;-57
2023/06/07 07:09:54;;;;;;;;;27.67;24.67;;;;;29.77;38.50;101421.66;5064021;27;45584;-57
2023/06/07 07:12:21;;;;;;;;;27.67;25.00;;;;;31.21;37.06;101422.97;5074901;27;45824;-57
2023/06/07 07:14:46;;;;;;;;;27.00;25.33;;;;;32.23;35.46;101417.03;5073326;27;45479;-57
2023/06/07 07:17:12;;;;;;;;;21.00;18.33;;;;;32.81;33.13;101419.31;5074520;27;45329;-57
2023/06/07 07:19:37;;;;;;;;;25.33;22.67;;;;;33.28;30.58;101417.47;5065511;27;45705;-57
2023/06/07 07:22:02;;;;;;;;;21.00;21.00;;;;;33.80;31.42;101423.09;5061691;27;67876;-57
2023/06/07 07:24:28;;;;;;;;;25.33;25.33;;;;;34.66;30.95;101422.13;5071489;28;45307;-57
2023/06/07 07:26:53;;;;;;;;;28.67;21.33;;;;;35.35;27.09;101430.56;5061383;27;62543;-57
2023/06/07 07:29:19;;;;;;;;;22.00;19.33;;;;;35.73;27.78;101433.13;5074514;27;67678;-57
2023/06/07 07:31:45;;;;;;;;;26.33;21.67;;;;;35.89;28.36;101428.06;5069564;27;45474;-60
2023/06/07 07:34:10;;;;;;;;;23.00;21.67;;;;;35.41;27.04;101424.09;5064344;27;45805;-57
2023/06/07 07:36:36;;;;;;;;;26.67;24.33;;;;;34.17;27.65;101424.47;5071468;27;46168;-57
2023/06/07 07:39:04;;;;;;;;;23.33;19.33;;;;;33.30;28.47;101422.78;5069612;27;45378;-57
2023/06/07 07:41:33;;;;;;;;;16.67;13.33;;;;;32.45;28.34;101428.75;5070496;27;45498;-57
2023/06/07 07:43:58;;;;;;;;;24.00;21.67;;;;;31.25;29.78;101426.13;5074622;27;45533;-57
2023/06/07 07:46:23;;;;;;;;;23.67;21.33;;;;;30.93;29.90;101436.59;5073074;27;45483;-57
2023/06/07 07:48:49;;;;;;;;;22.00;20.67;;;;;30.92;30.50;101429.41;5088537;27;52614;-57
2023/06/07 07:51:15;;;;;;;;;31.67;21.67;;;;;30.33;31.07;101431.28;5068608;28;62423;-57
2023/06/07 07:53:44;;;;;;;;;21.67;20.67;;;;;29.59;31.49;101429.41;5067099;28;45437;-58
2023/06/07 07:56:09;;;;;;;;;23.67;21.67;;;;;28.73;32.23;101435.94;5085202;27;47018;-57
2023/06/07 07:58:35;;;;;;;;;29.67;24.33;;;;;28.14;33.39;101430.97;5074255;27;46527;-57
2023/06/07 08:01:01;;;;;;;;;24.00;24.00;;;;;27.78;33.76;101437.69;5070054;27;45366;-57
2023/06/07 08:03:27;;;;;;;;;31.00;25.00;;;;;27.45;34.51;101428.75;5071475;27;45402;-57
2023/06/07 08:05:52;;;;;;;;;26.33;25.00;;;;;27.11;34.97;101422.41;5072812;27;46294;-57
2023/06/07 08:08:17;;;;;;;;;28.67;25.33;;;;;26.76;36.38;101424.44;5072310;27;67995;-56
2023/06/07 08:10:43;;;;;;;;;27.33;22.33;;;;;26.48;36.70;101424.69;5073768;27;45752;-57
2023/06/07 08:13:08;;;;;;;;;24.00;23.00;;;;;26.39;36.09;101421.09;5067765;27;45475;-57
2023/06/07 08:15:34;;;;;;;;;21.67;21.33;;;;;26.69;36.71;101420.66;5067823;27;61351;-57
2023/06/07 08:17:59;;;;;;;;;24.67;23.67;;;;;27.37;36.19;101424.09;5071308;27;45412;-57
2023/06/07 08:20:24;;;;;;;;;20.00;20.00;;;;;28.90;34.57;101414.78;5067102;27;46076;-57
2023/06/07 08:22:50;;;;;;;;;25.67;20.00;;;;;30.76;32.32;101416.81;5076307;27;45438;-56
2023/06/07 08:25:16;;;;;;;;;19.67;19.33;;;;;31.73;31.92;101417.19;5067987;27;47078;-57
2023/06/07 08:27:42;;;;;;;;;22.33;20.33;;;;;32.33;30.65;101423.00;5082721;27;45466;-57
2023/06/07 08:30:08;;;;;;;;;21.00;20.00;;;;;32.17;30.24;101419.53;5070779;27;45585;-57
2023/06/07 08:32:33;;;;;;;;;26.00;22.00;;;;;32.27;29.39;101429.34;5076762;27;45410;-57
2023/06/07 08:34:58;;;;;;;;;23.67;21.67;;;;;32.08;29.24;101429.00;5065784;27;45523;-57
2023/06/07 08:37:24;;;;;;;;;21.33;20.00;;;;;31.71;29.88;101433.03;5066394;27;51353;-57
2023/06/07 08:39:49;;;;;;;;;25.00;23.33;;;;;31.12;30.59;101419.50;5079369;27;63241;-57
2023/06/07 08:42:15;;;;;;;;;23.00;22.00;;;;;30.82;31.00;101427.84;5069422;27;45402;-57
2023/06/07 08:44:40;;;;;;;;;21.33;18.67;;;;;31.20;30.80;101429.50;5069575;27;47113;-57
2023/06/07 08:47:06;;;;;;;;;23.00;20.00;;;;;31.18;30.69;101435.19;5074494;27;45474;-57
2023/06/07 08:49:33;;;;;;;;;19.00;19.00;;;;;31.00;30.89;101432.88;5071013;27;45388;-57
2023/06/07 08:52:00;;;;;;;;;19.67;18.33;;;;;31.01;30.48;101426.31;5070560;28;45480;-57
2023/06/07 08:54:27;;;;;;;;;23.33;20.33;;;;;31.40;30.98;101417.81;5064873;27;46324;-57
2023/06/07 08:56:53;;;;;;;;;19.33;18.33;;;;;34.25;29.92;101419.56;5066452;27;45520;-57
2023/06/07 08:59:20;;;;;;;;;20.00;16.00;;;;;37.45;26.94;101411.75;5060789;27;45402;-57
2023/06/07 09:01:45;;;;;;;;;19.67;19.00;;;;;39.61;23.16;101417.69;5062474;27;45617;-58
2023/06/07 09:04:11;;;;;;;;;22.33;18.33;;;;;41.88;21.25;101411.47;5066764;27;64456;-57
2023/06/07 09:06:36;;;;;;;;;19.00;19.00;;;;;44.04;20.84;101411.44;5075382;27;64517;-57
2023/06/07 09:09:05;;;;;;;;;19.33;18.67;;;;;46.18;20.21;101405.16;5074007;27;45364;-59
2023/06/07 09:11:31;;;;;;;;;13.67;13.33;;;;;47.86;14.33;101412.88;5070313;27;45569;-59
2023/06/07 09:13:56;;;;;;;;;21.67;16.67;;;;;48.68;16.22;101410.06;5072687;27;47094;-59
2023/06/07 09:16:22;;;;;;;;;18.00;17.00;;;;;49.71;14.35;101412.09;5075758;27;45363;-59
2023/06/07 09:18:53;;;;;;;;;18.67;16.67;;;;;50.65;14.64;101410.78;5086533;27;54279;-59
2023/06/07 09:21:27;;;;;;;;;15.00;13.67;;;;;51.51;10.45;101419.34;5073867;27;45585;-59
2023/06/07 09:23:54;;;;;;;;;15.67;15.00;;;;;51.93;13.28;101407.25;5076552;27;45571;-59
2023/06/07 09:26:24;;;;;;;;;14.00;12.67;;;;;52.70;13.07;101406.91;5075787;27;45374;-59
2023/06/07 09:28:50;;;;;;;;;21.33;16.00;;;;;53.33;12.01;101407.81;5073186;27;45320;-59
2023/06/07 09:31:29;;;;;;;;;19.00;17.00;;;;;53.93;10.29;101415.81;5069097;27;45655;-59
2023/06/07 09:33:55;;;;;;;;;18.00;18.00;;;;;54.09;10.77;101404.53;5063245;27;46395;-60
2023/06/07 09:36:21;;;;;;;;;10.00;10.00;;;;;54.50;10.69;101406.16;5069777;27;45465;-59
2023/06/07 09:38:46;;;;;;;;;14.67;13.00;;;;;54.57;10.47;101414.06;5068486;28;45439;-59
2023/06/07 09:41:13;;;;;;;;;14.33;13.00;;;;;54.54;9.99;101415.63;5060971;27;62694;-59
2023/06/07 09:43:54;;;;;;;;;15.67;15.33;;;;;54.81;9.14;101401.72;5071060;27;45661;-59
2023/06/07 09:46:20;;;;;;;;;13.33;13.33;;;;;54.54;10.68;101406.25;5071984;28;45468;-59
2023/06/07 09:48:53;;;;;;;;;16.00;13.67;;;;;54.94;10.36;101399.59;5070494;27;45788;-59
2023/06/07 09:51:20;;;;;;;;;15.00;15.00;;;;;55.14;7.97;101397.69;5066199;27;46001;-59
2023/06/07 09:53:52;;;;;;;;;17.00;15.67;;;;;55.00;9.35;101398.13;5068743;27;47193;-59
2023/06/07 09:56:19;;;;;;;;;14.67;14.67;;;;;55.32;9.00;101383.88;5066795;27;45410;-59
2023/06/07 09:58:49;;;;;;;;;15.67;15.33;;;;;55.34;8.68;101378.63;5062871;27;45540;-59
2023/06/07 10:01:30;;;;;;;;;14.33;14.00;;;;;55.36;7.85;101381.09;5067493;27;45347;-59
2023/06/07 10:03:55;;;;;;;;;14.33;14.00;;;;;56.05;8.34;101388.38;5016272;28;47744;-59
2023/06/07 10:06:23;;;;;;;;;15.33;14.00;;;;;56.55;9.02;101383.66;5032967;27;45470;-59
2023/06/07 10:08:50;;;;;;;;;15.33;15.33;;;;;56.69;7.45;101383.09;5022589;27;45804;-59
2023/06/07 10:11:15;;;;;;;;;17.67;17.00;;;;;56.70;8.23;101376.19;5067282;28;45338;-59
2023/06/07 10:13:41;;;;;;;;;14.33;14.33;;;;;57.21;8.32;101377.84;5065368;28;49254;-59
2023/06/07 10:16:10;;;;;;;;;16.00;16.00;;;;;57.59;8.03;101375.97;5073913;28;69905;-59
2023/06/07 10:18:37;;;;;;;;;13.00;12.00;;;;;57.93;7.60;101378.06;5084452;27;45489;-58
2023/06/07 10:21:08;;;;;;;;;15.00;13.67;;;;;58.23;7.36;101380.03;5070770;28;45327;-58
2023/06/07 10:23:47;;;;;;;;;15.33;15.33;;;;;58.51;5.51;101373.81;5058186;28;48266;-58
2023/06/07 10:26:21;;;;;;;;;14.33;12.67;;;;;58.66;6.62;101379.69;5073392;27;45352;-58
2023/06/07 10:28:50;;;;;;;;;14.00;14.00;;;;;59.02;7.22;101380.00;5065459;28;45611;-59
2023/06/07 10:31:16;;;;;;;;;17.00;14.67;;;;;59.23;6.43;101373.63;5080516;27;45469;-59
2023/06/07 10:33:42;;;;;;;;;14.67;14.67;;;;;59.47;6.17;101366.38;5073521;28;66330;-59
2023/06/07 10:36:08;;;;;;;;;13.67;13.67;;;;;59.86;6.50;101357.16;5066665;27;45754;-59
2023/06/07 10:38:33;;;;;;;;;14.67;14.67;;;;;60.00;6.50;101361.28;5064706;28;45447;-60
2023/06/07 10:41:02;;;;;;;;;15.00;13.00;;;;;59.78;6.51;101363.28;5067438;27;45841;-59
2023/06/07 10:43:28;;;;;;;;;17.00;16.00;;;;;59.82;6.28;101361.25;5073186;27;46400;-59
2023/06/07 10:46:16;;;;;;;;;15.00;15.00;;;;;60.30;6.02;101349.47;5069123;27;45347;-59
2023/06/07 10:48:45;;;;;;;;;15.67;14.33;;;;;60.52;5.55;101347.44;5090733;27;45433;-59
2023/06/07 10:51:10;;;;;;;;;14.67;13.67;;;;;60.59;5.79;101349.50;5080253;27;45548;-59
2023/06/07 10:53:55;;;;;;;;;15.00;15.00;;;;;60.48;6.17;101342.97;5070504;27;45880;-59
2023/06/07 10:56:28;;;;;;;;;15.33;14.00;;;;;60.59;6.25;101340.88;5071567;27;45652;-59
2023/06/07 10:58:53;;;;;;;;;14.33;12.00;;;;;60.31;6.24;101335.97;5068618;27;45438;-59
2023/06/07 11:01:23;;;;;;;;;17.33;14.67;;;;;59.62;5.74;101332.06;5071223;27;45407;-59
2023/06/07 11:03:48;;;;;;;;;8.67;8.67;;;;;58.04;6.28;101341.84;5071972;28;45727;-59
2023/06/07 11:06:14;;;;;;;;;12.67;12.33;;;;;57.81;6.42;101327.66;5070935;27;45402;-59